createdAt,value
2022-08-25T00:00:34.786Z,20.90
2022-08-25T00:03:39.450Z,20.85
2022-08-25T00:06:45.406Z,20.80
2022-08-25T00:09:48.174Z,20.72
2022-08-25T00:12:56.916Z,20.64
2022-08-25T00:15:59.446Z,20.61
2022-08-25T00:19:10.218Z,20.58
2022-08-25T00:22:12.409Z,20.53
2022-08-25T00:25:16.205Z,20.45
2022-08-25T00:28:22.174Z,20.40
2022-08-25T00:31:38.678Z,20.33
2022-08-25T00:34:42.493Z,20.24
2022-08-25T00:37:45.906Z,20.21
2022-08-25T00:41:06.731Z,20.17
2022-08-25T00:44:40.476Z,20.11
2022-08-25T00:47:56.648Z,20.05
2022-08-25T00:51:03.876Z,19.97
2022-08-25T00:54:07.534Z,19.92
2022-08-25T00:57:13.340Z,19.86
2022-08-25T01:00:24.387Z,19.79
2022-08-25T01:03:41.166Z,19.89
2022-08-25T01:06:45.709Z,19.86
2022-08-25T01:09:54.315Z,19.86
2022-08-25T01:13:00.201Z,19.84
2022-08-25T01:16:02.671Z,19.84
2022-08-25T01:19:05.888Z,19.90
2022-08-25T01:22:12.310Z,20.01
2022-08-25T01:25:33.052Z,20.13
2022-08-25T01:28:35.834Z,20.13
2022-08-25T01:31:38.641Z,20.11
2022-08-25T01:34:44.863Z,20.14
2022-08-25T01:37:49.389Z,20.11
2022-08-25T01:40:55.382Z,20.07
2022-08-25T01:43:57.559Z,20.07
2022-08-25T01:47:07.094Z,20.00
2022-08-25T01:50:16.195Z,19.92
2022-08-25T01:53:23.241Z,19.86
2022-08-25T01:56:30.061Z,19.81
2022-08-25T01:59:38.602Z,19.75
2022-08-25T02:02:52.280Z,19.73
2022-08-25T02:05:58.016Z,19.67
2022-08-25T02:09:02.610Z,19.65
2022-08-25T02:12:04.785Z,19.61
2022-08-25T02:15:07.995Z,19.59
2022-08-25T02:18:10.480Z,19.57
2022-08-25T02:21:12.340Z,19.56
2022-08-25T02:24:15.883Z,19.55
2022-08-25T02:27:17.732Z,19.57
2022-08-25T02:30:20.088Z,19.55
2022-08-25T02:33:24.204Z,19.55
2022-08-25T02:36:26.560Z,19.51
2022-08-25T02:39:32.937Z,19.54
2022-08-25T02:42:34.899Z,19.53
2022-08-25T02:45:39.274Z,19.50
2022-08-25T02:48:41.695Z,19.47
2022-08-25T02:51:43.515Z,19.44
2022-08-25T02:54:46.667Z,19.36
2022-08-25T02:57:48.440Z,19.31
2022-08-25T03:00:50.207Z,19.29
2022-08-25T03:03:52.713Z,19.29
2022-08-25T03:06:54.541Z,19.26
2022-08-25T03:09:57.792Z,19.28
2022-08-25T03:12:59.794Z,19.29
2022-08-25T03:16:02.905Z,19.34
2022-08-25T03:19:05.620Z,19.40
2022-08-25T03:22:07.557Z,19.38
2022-08-25T03:25:29.589Z,19.34
2022-08-25T03:28:35.466Z,19.26
2022-08-25T03:31:37.676Z,19.20
2022-08-25T03:34:39.727Z,19.12
2022-08-25T03:37:41.839Z,19.04
2022-08-25T03:40:44.964Z,19.04
2022-08-25T03:43:48.243Z,19.04
2022-08-25T03:46:51.672Z,19.03
2022-08-25T03:50:02.620Z,19.01
2022-08-25T03:53:04.718Z,18.95
2022-08-25T03:56:07.796Z,18.97
2022-08-25T03:59:10.088Z,18.96
2022-08-25T04:02:11.757Z,18.94
2022-08-25T04:05:13.621Z,18.94
2022-08-25T04:08:19.209Z,18.95
2022-08-25T04:11:23.524Z,18.90
2022-08-25T04:14:25.123Z,18.85
2022-08-25T04:17:26.776Z,18.85
2022-08-25T04:20:28.433Z,18.86
2022-08-25T04:23:30.044Z,18.80
2022-08-25T04:26:34.332Z,18.83
2022-08-25T04:29:36.111Z,18.88
2022-08-25T04:32:38.460Z,18.92
2022-08-25T04:35:41.790Z,18.96
2022-08-25T04:38:44.136Z,18.93
2022-08-25T04:41:47.478Z,18.92
2022-08-25T04:44:50.245Z,18.93
2022-08-25T04:47:55.018Z,18.92
2022-08-25T04:50:57.158Z,18.88
2022-08-25T04:53:59.245Z,18.88
2022-08-25T04:57:02.442Z,18.81
2022-08-25T05:00:05.823Z,18.79
2022-08-25T05:03:08.932Z,18.83
2022-08-25T05:06:15.366Z,18.79
2022-08-25T05:09:19.836Z,18.85
2022-08-25T05:12:24.900Z,18.89
2022-08-25T05:15:45.664Z,18.95
2022-08-25T05:18:49.178Z,19.01
2022-08-25T05:21:51.726Z,18.99
2022-08-25T05:24:56.728Z,19.01
2022-08-25T05:28:00.165Z,19.10
2022-08-25T05:31:03.119Z,19.07
2022-08-25T05:34:06.387Z,19.17
2022-08-25T05:37:12.083Z,19.15
2022-08-25T05:40:18.657Z,19.20
2022-08-25T05:43:21.822Z,19.19
2022-08-25T05:46:24.413Z,19.22
2022-08-25T05:49:26.289Z,19.26
2022-08-25T05:52:28.792Z,19.32
2022-08-25T05:55:30.508Z,19.40
2022-08-25T05:58:33.718Z,19.48
2022-08-25T06:01:56.533Z,19.48
2022-08-25T06:05:04.769Z,19.53
2022-08-25T06:08:06.695Z,19.57
2022-08-25T06:11:08.451Z,19.67
2022-08-25T06:14:11.972Z,19.76
2022-08-25T06:17:13.632Z,19.84
2022-08-25T06:20:16.398Z,19.90
2022-08-25T06:23:20.803Z,19.97
2022-08-25T06:26:22.822Z,20.03
2022-08-25T06:29:26.326Z,20.11
2022-08-25T06:32:30.425Z,20.17
2022-08-25T06:35:32.058Z,20.26
2022-08-25T06:38:36.600Z,20.30
2022-08-25T06:41:38.918Z,20.36
2022-08-25T06:44:42.309Z,20.42
2022-08-25T06:47:45.685Z,20.50
2022-08-25T06:50:47.539Z,20.54
2022-08-25T06:53:49.438Z,20.61
2022-08-25T06:56:51.646Z,20.67
2022-08-25T06:59:54.682Z,20.75
2022-08-25T07:02:57.235Z,20.83
2022-08-25T07:05:58.900Z,20.92
2022-08-25T07:09:00.493Z,21.01
2022-08-25T07:12:04.714Z,21.10
2022-08-25T07:15:19.770Z,21.16
2022-08-25T07:18:23.577Z,21.26
2022-08-25T07:21:28.895Z,21.38
2022-08-25T07:24:34.463Z,21.55
2022-08-25T07:27:36.187Z,21.60
2022-08-25T07:30:39.314Z,21.64
2022-08-25T07:34:01.621Z,21.70
2022-08-25T07:37:06.304Z,21.88
2022-08-25T07:40:09.570Z,21.92
2022-08-25T07:43:12.042Z,22.07
2022-08-25T07:46:15.237Z,22.11
2022-08-25T07:49:17.124Z,22.11
2022-08-25T07:52:19.482Z,22.18
2022-08-25T07:55:21.452Z,22.21
2022-08-25T07:58:23.119Z,22.33
2022-08-25T08:01:26.333Z,22.40
2022-08-25T08:04:28.071Z,22.52
2022-08-25T08:07:41.896Z,22.58
2022-08-25T08:11:04.334Z,22.73
2022-08-25T08:14:07.783Z,22.78
2022-08-25T08:17:13.992Z,22.84
2022-08-25T08:20:16.379Z,22.88
2022-08-25T08:23:27.791Z,22.92
2022-08-25T08:26:55.495Z,23.05
2022-08-25T08:29:52.480Z,23.21
2022-08-25T08:33:11.960Z,23.32
2022-08-25T08:36:14.377Z,23.35
2022-08-25T08:39:16.876Z,23.41
2022-08-25T08:42:23.153Z,23.58
2022-08-25T08:45:28.616Z,23.76
2022-08-25T08:48:44.756Z,23.86
2022-08-25T08:51:53.454Z,23.86
2022-08-25T08:55:00.450Z,23.88
2022-08-25T08:58:06.475Z,23.88
2022-08-25T09:01:10.251Z,23.95
2022-08-25T09:04:16.504Z,24.03
2022-08-25T09:07:24.716Z,24.06
2022-08-25T09:10:28.748Z,24.21
2022-08-25T09:13:39.782Z,24.36
2022-08-25T09:16:56.133Z,24.50
2022-08-25T09:20:18.790Z,24.68
2022-08-25T09:23:29.159Z,24.76
2022-08-25T09:26:36.499Z,24.81
2022-08-25T09:29:45.859Z,24.94
2022-08-25T09:32:52.573Z,24.90
2022-08-25T09:35:57.353Z,24.89
2022-08-25T09:38:59.994Z,24.88
2022-08-25T09:42:02.152Z,24.84
2022-08-25T09:45:04.936Z,24.75
2022-08-25T09:48:20.824Z,24.62
2022-08-25T09:51:26.721Z,24.76
2022-08-25T09:54:43.996Z,24.80
2022-08-25T09:57:47.318Z,24.93
2022-08-25T10:01:01.665Z,25.24
2022-08-25T10:04:04.559Z,25.34
2022-08-25T10:07:19.340Z,25.27
2022-08-25T10:10:24.995Z,25.48
2022-08-25T10:13:33.884Z,25.60
2022-08-25T10:16:36.299Z,25.51
2022-08-25T10:19:38.961Z,25.64
2022-08-25T10:22:42.870Z,25.77
2022-08-25T10:25:58.994Z,25.87
2022-08-25T10:29:17.811Z,25.90
2022-08-25T10:32:26.350Z,25.69
2022-08-25T10:35:31.542Z,25.72
2022-08-25T10:38:38.495Z,25.47
2022-08-25T10:41:46.584Z,25.65
2022-08-25T10:45:16.632Z,25.82
2022-08-25T10:48:43.271Z,26.16
2022-08-25T10:51:51.076Z,26.22
2022-08-25T10:54:57.837Z,26.33
2022-08-25T10:58:03.793Z,26.51
2022-08-25T11:01:12.340Z,26.23
2022-08-25T11:04:15.722Z,26.23
2022-08-25T11:07:20.847Z,26.25
2022-08-25T11:10:26.191Z,25.89
2022-08-25T11:13:31.837Z,25.81
2022-08-25T11:16:37.385Z,26.20
2022-08-25T11:19:40.913Z,26.65
2022-08-25T11:22:45.442Z,26.77
2022-08-25T11:25:51.902Z,26.94
2022-08-25T11:28:57.697Z,27.04
2022-08-25T11:32:01.215Z,27.11
2022-08-25T11:35:07.632Z,27.12
2022-08-25T11:38:21.072Z,27.18
2022-08-25T11:41:27.234Z,27.40
2022-08-25T11:44:53.785Z,27.28
2022-08-25T11:48:04.581Z,27.20
2022-08-25T11:51:09.769Z,27.37
2022-08-25T11:54:17.491Z,27.50
2022-08-25T11:57:25.020Z,27.72
2022-08-25T12:00:36.994Z,27.99
2022-08-25T12:03:51.878Z,28.09
2022-08-25T12:07:13.768Z,28.30
2022-08-25T12:10:18.658Z,28.42
2022-08-25T12:13:39.360Z,28.47
2022-08-25T12:16:43.652Z,28.35
2022-08-25T12:19:50.652Z,28.05
2022-08-25T12:22:56.231Z,28.17
2022-08-25T12:25:58.864Z,27.93
2022-08-25T12:29:08.244Z,27.80
2022-08-25T12:32:25.741Z,27.77
2022-08-25T12:35:31.250Z,27.61
2022-08-25T12:38:35.008Z,27.58
2022-08-25T12:41:51.883Z,27.51
2022-08-25T12:45:09.061Z,27.44
2022-08-25T12:48:31.725Z,27.71
2022-08-25T12:51:48.457Z,27.97
2022-08-25T12:54:53.827Z,27.86
2022-08-25T12:57:58.939Z,27.47
2022-08-25T13:01:17.372Z,27.22
2022-08-25T13:04:56.924Z,27.18
2022-08-25T13:08:16.088Z,27.68
2022-08-25T13:11:20.297Z,27.76
2022-08-25T13:14:26.928Z,27.55
2022-08-25T13:17:30.441Z,27.34
2022-08-25T13:20:35.901Z,27.21
2022-08-25T13:23:41.048Z,27.21
2022-08-25T13:26:48.451Z,27.57
2022-08-25T13:29:52.226Z,27.80
2022-08-25T13:32:54.867Z,27.71
2022-08-25T13:36:16.918Z,27.76
2022-08-25T13:39:45.272Z,27.84
2022-08-25T13:42:50.896Z,27.89
2022-08-25T13:45:56.848Z,27.75
2022-08-25T13:49:03.350Z,27.93
2022-08-25T13:52:05.800Z,27.84
2022-08-25T13:55:09.512Z,27.93
2022-08-25T13:58:14.384Z,27.86
2022-08-25T14:01:22.627Z,27.61
2022-08-25T14:04:51.712Z,27.39
2022-08-25T14:08:03.858Z,27.24
2022-08-25T14:11:27.936Z,27.15
2022-08-25T14:14:31.237Z,27.46
2022-08-25T14:17:39.080Z,27.75
2022-08-25T14:20:44.719Z,27.95
2022-08-25T14:23:46.326Z,27.92
2022-08-25T14:26:54.316Z,28.08
2022-08-25T14:29:56.469Z,28.07
2022-08-25T14:32:58.724Z,28.20
2022-08-25T14:36:02.680Z,28.29
2022-08-25T14:39:08.924Z,28.29
2022-08-25T14:42:12.477Z,28.29
2022-08-25T14:45:14.506Z,28.22
2022-08-25T14:48:20.621Z,28.13
2022-08-25T14:51:23.724Z,28.19
2022-08-25T14:54:27.544Z,28.21
2022-08-25T14:57:30.635Z,28.20
2022-08-25T15:00:32.373Z,28.25
2022-08-25T15:03:36.288Z,28.18
2022-08-25T15:06:39.074Z,28.05
2022-08-25T15:09:40.578Z,28.00
2022-08-25T15:12:47.863Z,28.04
2022-08-25T15:15:52.293Z,27.85
2022-08-25T15:18:54.886Z,27.66
2022-08-25T15:21:58.143Z,27.50
2022-08-25T15:25:01.825Z,27.39
2022-08-25T15:28:10.174Z,27.29
2022-08-25T15:31:14.937Z,27.21
2022-08-25T15:34:16.744Z,27.15
2022-08-25T15:37:24.669Z,27.10
2022-08-25T15:40:26.738Z,27.06
2022-08-25T15:43:29.864Z,27.04
2022-08-25T15:46:33.065Z,27.00
2022-08-25T15:49:38.102Z,26.97
2022-08-25T15:52:47.538Z,26.95
2022-08-25T15:55:50.184Z,26.94
2022-08-25T15:58:57.323Z,26.90
2022-08-25T16:01:59.401Z,26.84
2022-08-25T16:05:01.531Z,26.82
2022-08-25T16:08:04.083Z,26.82
2022-08-25T16:11:06.496Z,26.87
2022-08-25T16:14:12.659Z,26.96
2022-08-25T16:17:16.038Z,26.99
2022-08-25T16:20:19.615Z,26.94
2022-08-25T16:23:24.395Z,26.95
2022-08-25T16:26:26.786Z,26.94
2022-08-25T16:29:35.950Z,26.96
2022-08-25T16:32:37.960Z,26.95
2022-08-25T16:35:40.675Z,26.94
2022-08-25T16:38:43.443Z,26.97
2022-08-25T16:41:52.105Z,26.91
2022-08-25T16:44:55.111Z,26.87
2022-08-25T16:47:56.793Z,26.85
2022-08-25T16:50:58.534Z,26.90
2022-08-25T16:54:22.231Z,26.87
2022-08-25T16:57:24.339Z,26.85
2022-08-25T17:00:30.221Z,26.78
2022-08-25T17:03:34.249Z,26.74
2022-08-25T17:06:37.446Z,26.72
2022-08-25T17:09:39.932Z,26.74
2022-08-25T17:12:41.921Z,26.73
2022-08-25T17:15:47.165Z,26.69
2022-08-25T17:18:48.905Z,26.65
2022-08-25T17:21:50.907Z,26.62
2022-08-25T17:24:59.123Z,26.55
2022-08-25T17:28:05.590Z,26.50
2022-08-25T17:31:09.582Z,26.44
2022-08-25T17:34:13.048Z,26.38
2022-08-25T17:37:18.115Z,26.33
2022-08-25T17:40:21.841Z,26.26
2022-08-25T17:43:27.521Z,26.24
2022-08-25T17:46:33.760Z,26.17
2022-08-25T17:49:35.817Z,26.11
2022-08-25T17:52:37.592Z,26.04
2022-08-25T17:55:42.269Z,25.97
2022-08-25T17:58:45.367Z,25.89
2022-08-25T18:01:50.136Z,25.83
2022-08-25T18:04:57.520Z,25.78
2022-08-25T18:08:00.642Z,25.69
2022-08-25T18:11:05.932Z,25.61
2022-08-25T18:14:11.480Z,25.52
2022-08-25T18:17:14.573Z,25.44
2022-08-25T18:20:23.712Z,25.38
2022-08-25T18:23:25.340Z,25.33
2022-08-25T18:26:27.365Z,25.25
2022-08-25T18:29:29.190Z,25.19
2022-08-25T18:32:32.116Z,25.14
2022-08-25T18:35:34.759Z,25.09
2022-08-25T18:38:57.894Z,25.03
2022-08-25T18:42:01.240Z,24.98
2022-08-25T18:45:06.198Z,24.94
2022-08-25T18:48:09.597Z,24.87
2022-08-25T18:51:12.118Z,24.84
2022-08-25T18:54:23.224Z,24.82
2022-08-25T18:57:25.399Z,24.79
2022-08-25T19:00:28.328Z,24.76
2022-08-25T19:03:31.232Z,24.75
2022-08-25T19:06:37.487Z,24.73
2022-08-25T19:09:39.635Z,24.73
2022-08-25T19:12:41.380Z,24.70
2022-08-25T19:15:44.370Z,24.65
2022-08-25T19:18:52.243Z,24.60
2022-08-25T19:21:54.033Z,24.54
2022-08-25T19:24:55.784Z,24.51
2022-08-25T19:28:04.310Z,24.45
2022-08-25T19:31:08.292Z,24.41
2022-08-25T19:34:14.841Z,24.36
2022-08-25T19:37:17.928Z,24.32
2022-08-25T19:40:20.530Z,24.28
2022-08-25T19:43:26.751Z,24.25
2022-08-25T19:46:32.507Z,24.22
2022-08-25T19:49:36.992Z,24.20
2022-08-25T19:52:40.114Z,24.18
2022-08-25T19:55:44.164Z,24.16
2022-08-25T19:58:46.212Z,24.11
2022-08-25T20:01:50.260Z,24.07
2022-08-25T20:04:55.135Z,24.02
2022-08-25T20:07:57.644Z,23.96
2022-08-25T20:10:59.927Z,23.94
2022-08-25T20:14:03.905Z,23.94
2022-08-25T20:17:14.628Z,23.93
2022-08-25T20:20:32.455Z,23.89
2022-08-25T20:23:55.129Z,23.85
2022-08-25T20:26:56.934Z,23.82
2022-08-25T20:29:58.522Z,23.79
2022-08-25T20:33:00.560Z,23.79
2022-08-25T20:36:06.861Z,23.80
2022-08-25T20:39:08.919Z,23.76
2022-08-25T20:42:11.664Z,23.73
2022-08-25T20:45:14.080Z,23.67
2022-08-25T20:48:15.642Z,23.62
2022-08-25T20:51:21.215Z,23.62
2022-08-25T20:54:26.300Z,23.56
2022-08-25T20:57:28.712Z,23.51
2022-08-25T21:00:30.271Z,23.43
2022-08-25T21:03:31.829Z,23.39
2022-08-25T21:06:36.311Z,23.38
2022-08-25T21:09:40.244Z,23.39
2022-08-25T21:12:42.849Z,23.38
2022-08-25T21:15:48.604Z,23.34
2022-08-25T21:18:50.317Z,23.31
2022-08-25T21:21:53.833Z,23.31
2022-08-25T21:24:58.146Z,23.32
2022-08-25T21:28:00.172Z,23.29
2022-08-25T21:31:06.533Z,23.29
2022-08-25T21:34:10.693Z,23.26
2022-08-25T21:37:14.711Z,23.23
2022-08-25T21:40:16.666Z,23.20
2022-08-25T21:43:21.983Z,23.17
2022-08-25T21:46:26.288Z,23.17
2022-08-25T21:49:28.900Z,23.17
2022-08-25T21:52:41.200Z,23.15
2022-08-25T21:55:44.594Z,23.11
2022-08-25T21:58:49.079Z,23.06
2022-08-25T22:01:54.372Z,23.02
2022-08-25T22:04:56.061Z,23.02
2022-08-25T22:07:59.062Z,23.01
2022-08-25T22:11:01.250Z,22.99
2022-08-25T22:14:05.689Z,22.96
2022-08-25T22:17:16.501Z,22.94
2022-08-25T22:20:19.804Z,22.92
2022-08-25T22:23:28.144Z,22.90
2022-08-25T22:26:31.630Z,22.84
2022-08-25T22:29:33.489Z,22.80
2022-08-25T22:32:35.165Z,22.76
2022-08-25T22:35:37.057Z,22.75
2022-08-25T22:38:42.684Z,22.74
2022-08-25T22:41:45.795Z,22.72
2022-08-25T22:44:47.767Z,22.71
2022-08-25T22:47:49.792Z,22.67
2022-08-25T22:50:51.577Z,22.63
2022-08-25T22:53:55.543Z,22.58
2022-08-25T22:56:57.350Z,22.53
2022-08-25T22:59:59.390Z,22.50
2022-08-25T23:03:03.375Z,22.48
2022-08-25T23:06:11.244Z,22.45
2022-08-25T23:09:14.521Z,22.44
2022-08-25T23:12:16.874Z,22.43
2022-08-25T23:15:18.635Z,22.44
2022-08-25T23:18:22.303Z,22.42
2022-08-25T23:21:42.715Z,22.41
2022-08-25T23:24:47.442Z,22.36
2022-08-25T23:27:49.025Z,22.34
2022-08-25T23:30:57.231Z,22.30
2022-08-25T23:34:01.279Z,22.25
2022-08-25T23:37:05.823Z,22.22
2022-08-25T23:40:10.714Z,22.19
2022-08-25T23:43:12.542Z,22.15
2022-08-25T23:46:14.818Z,22.11
2022-08-25T23:49:18.672Z,22.08
2022-08-25T23:52:20.599Z,22.06
2022-08-25T23:55:23.910Z,22.02
2022-08-25T23:58:27.322Z,22.00
